createdAt,value
2022-08-05T00:02:22.028Z,26.62
2022-08-05T00:04:55.542Z,26.62
2022-08-05T00:07:59.799Z,26.46
2022-08-05T00:10:10.466Z,26.35
2022-08-05T00:12:48.487Z,26.32
2022-08-05T00:15:55.905Z,26.35
2022-08-05T00:18:10.429Z,26.28
2022-08-05T00:20:48.852Z,26.23
2022-08-05T00:23:15.478Z,26.21
2022-08-05T00:25:46.148Z,26.21
2022-08-05T00:28:13.460Z,26.21
2022-08-05T00:30:41.231Z,26.19
2022-08-05T00:33:15.436Z,26.16
2022-08-05T00:36:16.040Z,26.11
2022-08-05T00:38:44.327Z,26.07
2022-08-05T00:41:11.762Z,26.07
2022-08-05T00:43:46.704Z,25.99
2022-08-05T00:46:16.026Z,25.92
2022-08-05T00:48:51.117Z,25.91
2022-08-05T00:51:50.935Z,25.93
2022-08-05T00:54:05.818Z,25.84
2022-08-05T00:56:32.315Z,25.79
2022-08-05T00:59:00.198Z,25.80
2022-08-05T01:01:42.574Z,25.61
2022-08-05T01:04:14.058Z,25.60
2022-08-05T01:07:22.774Z,25.56
2022-08-05T01:09:58.842Z,25.52
2022-08-05T01:12:29.801Z,25.43
2022-08-05T01:15:04.042Z,25.35
2022-08-05T01:17:31.597Z,25.18
2022-08-05T01:20:31.593Z,25.21
2022-08-05T01:23:40.586Z,25.03
2022-08-05T01:26:13.958Z,24.95
2022-08-05T01:29:05.161Z,24.95
2022-08-05T01:31:46.915Z,24.76
2022-08-05T01:34:35.792Z,24.81
2022-08-05T01:37:24.665Z,24.79
2022-08-05T01:39:58.722Z,24.73
2022-08-05T01:42:27.763Z,24.66
2022-08-05T01:44:56.630Z,24.70
2022-08-05T01:47:39.655Z,24.71
2022-08-05T01:50:16.021Z,24.54
2022-08-05T01:52:50.023Z,24.32
2022-08-05T01:55:20.290Z,24.41
2022-08-05T01:58:12.462Z,24.29
2022-08-05T02:00:41.982Z,24.24
2022-08-05T02:03:46.671Z,24.14
2022-08-05T02:06:33.935Z,24.12
2022-08-05T02:09:00.797Z,24.05
2022-08-05T02:11:37.574Z,24.03
2022-08-05T02:14:13.127Z,24.05
2022-08-05T02:16:44.561Z,23.86
2022-08-05T02:19:22.754Z,23.82
2022-08-05T02:22:26.597Z,23.89
2022-08-05T02:25:03.579Z,23.81
2022-08-05T02:27:57.896Z,23.62
2022-08-05T02:30:20.653Z,23.58
2022-08-05T02:32:51.300Z,23.70
2022-08-05T02:35:22.151Z,23.63
2022-08-05T02:37:56.687Z,23.66
2022-08-05T02:40:27.442Z,23.52
2022-08-05T02:42:55.646Z,23.56
2022-08-05T02:45:25.348Z,23.63
2022-08-05T02:48:11.435Z,23.66
2022-08-05T02:50:43.772Z,23.67
2022-08-05T02:53:19.095Z,23.69
2022-08-05T02:55:59.519Z,23.57
2022-08-05T02:58:30.066Z,23.49
2022-08-05T03:01:00.855Z,23.42
2022-08-05T03:03:33.693Z,23.30
2022-08-05T03:06:55.888Z,23.14
2022-08-05T03:08:52.431Z,23.16
2022-08-05T03:11:56.954Z,23.01
2022-08-05T03:14:09.960Z,23.07
2022-08-05T03:16:40.490Z,22.95
2022-08-05T03:19:17.373Z,22.92
2022-08-05T03:21:53.623Z,22.84
2022-08-05T03:24:29.358Z,22.99
2022-08-05T03:26:56.940Z,22.95
2022-08-05T03:29:24.063Z,22.69
2022-08-05T03:31:56.900Z,22.86
2022-08-05T03:34:28.769Z,22.67
2022-08-05T03:36:55.380Z,22.54
2022-08-05T03:39:27.112Z,22.55
2022-08-05T03:41:56.262Z,22.71
2022-08-05T03:44:23.481Z,22.59
2022-08-05T03:46:50.140Z,22.62
2022-08-05T03:49:16.999Z,22.29
2022-08-05T03:52:48.707Z,22.42
2022-08-05T03:55:51.304Z,22.41
2022-08-05T03:57:41.416Z,22.52
2022-08-05T04:00:11.489Z,22.55
2022-08-05T04:02:57.578Z,22.80
2022-08-05T04:05:28.006Z,22.91
2022-08-05T04:08:03.493Z,22.82
2022-08-05T04:10:37.982Z,22.77
2022-08-05T04:13:07.249Z,22.74
2022-08-05T04:15:36.532Z,22.58
2022-08-05T04:18:09.313Z,22.84
2022-08-05T04:20:36.461Z,22.94
2022-08-05T04:23:03.105Z,22.87
2022-08-05T04:25:56.639Z,22.97
2022-08-05T04:28:17.416Z,23.02
2022-08-05T04:30:44.187Z,23.18
2022-08-05T04:33:11.014Z,23.16
2022-08-05T04:36:10.900Z,23.13
2022-08-05T04:38:39.463Z,23.25
2022-08-05T04:41:07.469Z,23.27
2022-08-05T04:43:37.422Z,23.16
2022-08-05T04:46:05.059Z,23.30
2022-08-05T04:48:32.176Z,23.36
2022-08-05T04:51:03.839Z,23.49
2022-08-05T04:53:38.556Z,23.29
2022-08-05T04:56:33.068Z,23.34
2022-08-05T04:58:54.324Z,23.10
2022-08-05T05:01:33.693Z,23.08
2022-08-05T05:04:07.535Z,22.93
2022-08-05T05:06:39.827Z,23.19
2022-08-05T05:09:14.125Z,23.34
2022-08-05T05:11:54.444Z,23.20
2022-08-05T05:14:31.718Z,23.40
2022-08-05T05:17:01.774Z,23.28
2022-08-05T05:19:37.162Z,23.45
2022-08-05T05:22:22.782Z,23.62
2022-08-05T05:24:57.335Z,23.56
2022-08-05T05:27:44.793Z,23.42
2022-08-05T05:30:29.190Z,23.42
2022-08-05T05:32:57.166Z,23.42
2022-08-05T05:35:27.896Z,23.47
2022-08-05T05:38:00.155Z,23.55
2022-08-05T05:40:29.348Z,23.56
2022-08-05T05:42:57.307Z,23.44
2022-08-05T05:45:24.703Z,23.55
2022-08-05T05:48:06.555Z,23.36
2022-08-05T05:50:41.033Z,23.24
2022-08-05T05:53:21.340Z,23.25
2022-08-05T05:55:52.345Z,23.21
2022-08-05T05:58:31.719Z,23.08
2022-08-05T06:01:02.556Z,23.13
2022-08-05T06:04:01.720Z,23.34
2022-08-05T06:06:28.229Z,23.28
2022-08-05T06:08:57.460Z,23.24
2022-08-05T06:11:24.041Z,23.17
2022-08-05T06:13:54.005Z,23.25
2022-08-05T06:16:28.518Z,23.03
2022-08-05T06:19:00.878Z,23.11
2022-08-05T06:21:36.140Z,23.13
2022-08-05T06:24:04.517Z,23.02
2022-08-05T06:26:33.934Z,23.21
2022-08-05T06:29:06.033Z,23.07
2022-08-05T06:31:48.132Z,23.15
2022-08-05T06:34:19.903Z,23.32
2022-08-05T06:36:57.472Z,23.38
2022-08-05T06:39:27.076Z,23.17
2022-08-05T06:41:58.640Z,23.18
2022-08-05T06:44:25.635Z,23.23
2022-08-05T06:46:52.644Z,23.49
2022-08-05T06:49:21.369Z,23.44
2022-08-05T06:52:07.597Z,23.41
2022-08-05T06:54:54.048Z,23.54
2022-08-05T06:58:02.725Z,23.54
2022-08-05T07:00:07.859Z,23.27
2022-08-05T07:02:46.129Z,23.21
2022-08-05T07:05:18.596Z,23.39
2022-08-05T07:07:48.853Z,23.37
2022-08-05T07:10:16.387Z,23.47
2022-08-05T07:13:01.944Z,23.52
2022-08-05T07:16:00.992Z,23.56
2022-08-05T07:18:31.540Z,23.22
2022-08-05T07:20:58.484Z,23.44
2022-08-05T07:23:32.147Z,23.14
2022-08-05T07:25:59.134Z,23.47
2022-08-05T07:28:26.302Z,23.54
2022-08-05T07:30:54.996Z,23.31
2022-08-05T07:33:36.464Z,23.40
2022-08-05T07:36:21.498Z,23.26
2022-08-05T07:38:49.167Z,23.23
2022-08-05T07:42:13.277Z,23.42
2022-08-05T07:44:18.545Z,23.07
2022-08-05T07:46:48.639Z,23.08
2022-08-05T07:49:18.284Z,23.26
2022-08-05T07:51:53.355Z,23.23
2022-08-05T07:54:31.684Z,23.30
2022-08-05T07:57:17.611Z,23.09
2022-08-05T07:59:49.260Z,23.02
2022-08-05T08:02:17.662Z,23.03
2022-08-05T08:04:49.388Z,23.22
2022-08-05T08:07:16.418Z,22.83
2022-08-05T08:09:44.738Z,22.91
2022-08-05T08:12:33.541Z,23.05
2022-08-05T08:15:02.191Z,22.90
2022-08-05T08:17:31.252Z,23.03
2022-08-05T08:20:21.496Z,23.28
2022-08-05T08:22:44.358Z,23.23
2022-08-05T08:25:15.688Z,23.16
2022-08-05T08:27:44.765Z,23.21
2022-08-05T08:30:27.006Z,23.00
2022-08-05T08:32:56.896Z,22.99
2022-08-05T08:35:26.762Z,23.05
2022-08-05T08:37:56.285Z,23.13
2022-08-05T08:40:23.760Z,22.92
2022-08-05T08:42:53.023Z,23.11
2022-08-05T08:45:26.752Z,23.31
2022-08-05T08:48:12.654Z,22.96
2022-08-05T08:51:22.004Z,23.02
2022-08-05T08:53:35.477Z,23.05
2022-08-05T08:56:05.957Z,23.00
2022-08-05T08:58:43.949Z,23.05
2022-08-05T09:01:17.238Z,23.15
2022-08-05T09:03:54.258Z,22.96
2022-08-05T09:06:24.325Z,22.96
2022-08-05T09:08:57.941Z,22.95
2022-08-05T09:11:51.549Z,23.00
2022-08-05T09:14:57.620Z,22.77
2022-08-05T09:17:03.767Z,22.96
2022-08-05T09:19:36.874Z,22.88
2022-08-05T09:22:22.396Z,23.32
2022-08-05T09:25:13.814Z,23.38
2022-08-05T09:28:05.961Z,23.50
2022-08-05T09:30:34.281Z,23.83
2022-08-05T09:33:04.918Z,23.81
2022-08-05T09:35:32.705Z,23.97
2022-08-05T09:38:16.853Z,23.93
2022-08-05T09:40:53.732Z,23.96
2022-08-05T09:43:30.835Z,23.79
2022-08-05T09:46:28.002Z,23.96
2022-08-05T09:49:08.054Z,23.69
2022-08-05T09:51:43.158Z,23.83
2022-08-05T09:54:10.097Z,23.60
2022-08-05T09:56:38.450Z,23.83
2022-08-05T09:59:08.350Z,23.39
2022-08-05T10:01:39.723Z,22.99
2022-08-05T10:04:15.934Z,22.38
2022-08-05T10:06:58.974Z,21.81
2022-08-05T10:09:28.199Z,22.11
2022-08-05T10:12:30.591Z,22.61
2022-08-05T10:15:16.961Z,22.81
2022-08-05T10:17:54.465Z,23.07
2022-08-05T10:20:23.924Z,23.35
2022-08-05T10:22:52.366Z,23.44
2022-08-05T10:25:19.525Z,23.46
2022-08-05T10:28:09.358Z,23.59
2022-08-05T10:31:20.921Z,23.71
2022-08-05T10:33:25.590Z,23.84
2022-08-05T10:35:59.702Z,23.91
2022-08-05T10:38:28.556Z,23.84
2022-08-05T10:41:23.239Z,23.78
2022-08-05T10:44:00.914Z,23.66
2022-08-05T10:46:43.640Z,23.80
2022-08-05T10:49:16.744Z,23.79
2022-08-05T10:52:00.270Z,23.90
2022-08-05T10:54:56.254Z,23.99
2022-08-05T10:57:31.799Z,24.07
2022-08-05T11:00:22.795Z,24.14
2022-08-05T11:03:25.144Z,24.04
2022-08-05T11:06:16.234Z,24.13
2022-08-05T11:09:24.499Z,24.32
2022-08-05T11:12:26.810Z,24.37
2022-08-05T11:15:21.260Z,24.39
2022-08-05T11:18:05.901Z,24.35
2022-08-05T11:20:46.098Z,24.54
2022-08-05T11:24:05.717Z,24.79
2022-08-05T11:26:33.871Z,24.84
2022-08-05T11:29:11.489Z,26.05
2022-08-05T11:31:58.375Z,25.52
2022-08-05T11:34:38.900Z,26.35
2022-08-05T11:37:06.093Z,26.34
2022-08-05T11:39:55.229Z,25.70
2022-08-05T11:42:27.977Z,26.26
2022-08-05T11:45:02.446Z,26.87
2022-08-05T11:47:49.511Z,27.21
2022-08-05T11:50:17.729Z,27.63
2022-08-05T11:52:46.181Z,26.67
2022-08-05T11:55:16.177Z,26.76
2022-08-05T11:58:10.520Z,26.08
2022-08-05T12:00:38.626Z,26.07
2022-08-05T12:03:42.229Z,26.32
2022-08-05T12:06:24.838Z,26.32
2022-08-05T12:08:54.840Z,26.78
2022-08-05T12:11:39.872Z,26.75
2022-08-05T12:14:10.383Z,26.43
2022-08-05T12:16:39.318Z,26.05
2022-08-05T12:19:08.215Z,25.82
2022-08-05T12:22:02.669Z,25.89
2022-08-05T12:24:30.044Z,26.11
2022-08-05T12:26:57.296Z,25.81
2022-08-05T12:29:26.428Z,25.53
2022-08-05T12:31:57.775Z,25.17
2022-08-05T12:34:30.366Z,25.59
2022-08-05T12:37:00.596Z,25.46
2022-08-05T12:39:37.528Z,25.79
2022-08-05T12:42:15.006Z,25.18
2022-08-05T12:44:43.148Z,25.28
2022-08-05T12:47:12.350Z,25.96
2022-08-05T12:50:03.537Z,25.05
2022-08-05T12:52:38.620Z,25.07
2022-08-05T12:55:26.573Z,25.86
2022-08-05T12:58:49.931Z,26.07
2022-08-05T13:02:01.007Z,25.23
2022-08-05T13:03:41.810Z,24.96
2022-08-05T13:06:17.146Z,25.01
2022-08-05T13:08:51.791Z,24.79
2022-08-05T13:11:25.451Z,24.61
2022-08-05T13:14:35.999Z,24.91
2022-08-05T13:17:08.908Z,24.76
2022-08-05T13:19:51.606Z,24.78
2022-08-05T13:22:29.201Z,24.90
2022-08-05T13:24:58.145Z,24.66
2022-08-05T13:27:38.253Z,25.15
2022-08-05T13:30:34.389Z,25.05
2022-08-05T13:32:54.017Z,24.66
2022-08-05T13:35:42.930Z,24.64
2022-08-05T13:38:10.779Z,24.26
2022-08-05T13:40:50.059Z,24.66
2022-08-05T13:43:21.925Z,25.12
2022-08-05T13:45:48.878Z,25.39
2022-08-05T13:48:58.070Z,24.80
2022-08-05T13:51:13.923Z,24.91
2022-08-05T13:53:47.703Z,24.90
2022-08-05T13:56:18.474Z,24.82
2022-08-05T13:58:53.216Z,25.10
2022-08-05T14:01:25.851Z,24.97
2022-08-05T14:04:21.246Z,25.17
2022-08-05T14:06:47.911Z,24.70
2022-08-05T14:09:25.357Z,24.91
2022-08-05T14:12:04.471Z,25.34
2022-08-05T14:14:42.818Z,25.18
2022-08-05T14:17:17.026Z,25.02
2022-08-05T14:19:54.391Z,24.75
2022-08-05T14:22:23.889Z,25.04
2022-08-05T14:24:57.039Z,24.94
2022-08-05T14:27:24.217Z,24.49
2022-08-05T14:29:55.441Z,24.89
2022-08-05T14:32:27.680Z,24.75
2022-08-05T14:34:54.787Z,24.68
2022-08-05T14:37:24.239Z,24.66
2022-08-05T14:40:14.281Z,24.71
2022-08-05T14:42:43.251Z,24.83
2022-08-05T14:45:10.227Z,24.77
2022-08-05T14:48:03.700Z,24.47
2022-08-05T14:50:25.294Z,24.48
2022-08-05T14:52:58.423Z,24.54
2022-08-05T14:55:28.767Z,24.68
2022-08-05T14:58:11.251Z,24.56
2022-08-05T15:00:58.813Z,24.64
2022-08-05T15:03:33.756Z,24.55
2022-08-05T15:06:08.126Z,24.29
2022-08-05T15:08:59.868Z,24.11
2022-08-05T15:11:52.656Z,24.40
2022-08-05T15:14:34.247Z,24.36
2022-08-05T15:17:03.974Z,24.06
2022-08-05T15:19:31.908Z,24.42
2022-08-05T15:22:00.947Z,24.21
2022-08-05T15:24:28.307Z,24.25
2022-08-05T15:26:55.994Z,24.00
2022-08-05T15:29:23.514Z,24.14
2022-08-05T15:31:56.471Z,23.88
2022-08-05T15:34:32.307Z,23.78
2022-08-05T15:37:03.461Z,23.95
2022-08-05T15:40:58.614Z,23.82
2022-08-05T15:42:54.422Z,23.67
2022-08-05T15:45:06.931Z,23.72
2022-08-05T15:47:36.305Z,23.82
2022-08-05T15:50:03.766Z,23.69
2022-08-05T15:52:52.934Z,23.97
2022-08-05T15:55:19.276Z,23.79
2022-08-05T15:57:51.329Z,23.80
2022-08-05T16:00:25.992Z,23.58
2022-08-05T16:02:59.402Z,23.43
2022-08-05T16:05:28.161Z,23.54
2022-08-05T16:07:55.213Z,23.65
2022-08-05T16:10:26.739Z,23.47
2022-08-05T16:12:53.656Z,23.46
2022-08-05T16:15:23.135Z,23.60
2022-08-05T16:17:57.987Z,23.33
2022-08-05T16:20:25.420Z,23.48
2022-08-05T16:22:51.938Z,23.54
2022-08-05T16:25:18.501Z,23.52
2022-08-05T16:28:00.388Z,23.38
2022-08-05T16:30:32.449Z,23.52
2022-08-05T16:33:00.094Z,23.46
2022-08-05T16:35:28.637Z,23.50
2022-08-05T16:38:15.603Z,23.16
2022-08-05T16:40:51.602Z,23.13
2022-08-05T16:43:23.485Z,23.11
2022-08-05T16:46:07.434Z,23.23
2022-08-05T16:48:39.115Z,23.22
2022-08-05T16:51:08.969Z,23.39
2022-08-05T16:54:04.148Z,23.23
2022-08-05T16:56:29.221Z,23.31
2022-08-05T16:58:57.409Z,23.07
2022-08-05T17:01:24.546Z,22.95
2022-08-05T17:03:51.815Z,22.87
2022-08-05T17:06:18.512Z,22.74
2022-08-05T17:08:52.035Z,22.53
2022-08-05T17:11:23.725Z,22.54
2022-08-05T17:14:00.137Z,22.61
2022-08-05T17:16:33.573Z,22.68
2022-08-05T17:19:02.820Z,22.64
2022-08-05T17:21:36.034Z,22.36
2022-08-05T17:24:19.600Z,22.35
2022-08-05T17:26:52.373Z,22.14
2022-08-05T17:29:22.229Z,21.82
2022-08-05T17:31:58.192Z,22.09
2022-08-05T17:34:30.166Z,21.99
2022-08-05T17:36:59.808Z,22.00
2022-08-05T17:39:34.424Z,21.78
2022-08-05T17:42:20.104Z,21.81
2022-08-05T17:44:50.208Z,21.86
2022-08-05T17:47:22.538Z,21.39
2022-08-05T17:49:59.922Z,21.25
2022-08-05T17:52:31.511Z,21.08
2022-08-05T17:54:58.062Z,21.18
2022-08-05T17:57:24.712Z,21.01
2022-08-05T18:00:03.726Z,21.27
2022-08-05T18:02:35.360Z,21.21
2022-08-05T18:05:06.459Z,21.17
2022-08-05T18:07:41.536Z,20.99
2022-08-05T18:10:10.754Z,20.94
2022-08-05T18:12:37.899Z,20.99
2022-08-05T18:15:05.442Z,20.91
2022-08-05T18:17:58.890Z,20.92
2022-08-05T18:20:29.436Z,21.07
2022-08-05T18:23:00.611Z,21.07
2022-08-05T18:25:39.588Z,21.01
2022-08-05T18:28:11.648Z,20.90
2022-08-05T18:30:40.186Z,20.79
2022-08-05T18:33:08.431Z,20.86
2022-08-05T18:36:01.032Z,20.82
2022-08-05T18:38:25.822Z,20.74
2022-08-05T18:41:56.592Z,20.81
2022-08-05T18:43:42.734Z,20.74
2022-08-05T18:46:14.868Z,20.74
2022-08-05T18:48:41.949Z,20.82
2022-08-05T18:52:04.445Z,20.85
2022-08-05T18:54:14.651Z,20.38
2022-08-05T18:56:41.737Z,20.47
2022-08-05T18:59:43.239Z,20.39
2022-08-05T19:02:04.836Z,20.51
2022-08-05T19:04:38.109Z,20.53
2022-08-05T19:07:24.864Z,20.61
2022-08-05T19:09:56.661Z,20.49
2022-08-05T19:12:23.867Z,20.44
2022-08-05T19:15:00.522Z,20.49
2022-08-05T19:17:59.575Z,20.49
2022-08-05T19:20:15.962Z,20.54
2022-08-05T19:22:44.098Z,20.39
2022-08-05T19:25:10.842Z,20.34
2022-08-05T19:27:48.716Z,20.29
2022-08-05T19:30:16.656Z,20.25
2022-08-05T19:32:47.385Z,20.07
2022-08-05T19:35:14.399Z,20.02
2022-08-05T19:38:04.400Z,19.94
2022-08-05T19:40:28.683Z,19.90
2022-08-05T19:43:04.731Z,19.81
2022-08-05T19:45:33.130Z,19.91
2022-08-05T19:48:03.384Z,19.90
2022-08-05T19:50:31.830Z,19.88
2022-08-05T19:52:58.573Z,19.83
2022-08-05T19:56:13.641Z,19.80
2022-08-05T19:58:28.327Z,19.76
2022-08-05T20:00:56.232Z,19.71
2022-08-05T20:03:22.812Z,19.72
2022-08-05T20:05:56.444Z,19.59
2022-08-05T20:08:24.229Z,19.68
2022-08-05T20:10:51.593Z,19.62
2022-08-05T20:13:30.380Z,19.62
2022-08-05T20:16:06.275Z,19.62
2022-08-05T20:18:36.302Z,19.63
2022-08-05T20:21:06.491Z,19.64
2022-08-05T20:23:39.506Z,19.50
2022-08-05T20:26:17.499Z,19.53
2022-08-05T20:28:45.694Z,19.54
2022-08-05T20:31:12.579Z,19.41
2022-08-05T20:33:42.560Z,19.44
2022-08-05T20:36:10.068Z,19.48
2022-08-05T20:38:37.753Z,19.39
2022-08-05T20:41:08.085Z,19.38
2022-08-05T20:44:00.400Z,19.29
2022-08-05T20:46:25.070Z,19.31
2022-08-05T20:48:52.336Z,19.28
2022-08-05T20:51:18.887Z,19.27
2022-08-05T20:53:56.872Z,19.28
2022-08-05T20:56:28.763Z,19.27
2022-08-05T20:58:56.700Z,19.24
2022-08-05T21:01:38.250Z,19.19
2022-08-05T21:04:07.179Z,19.10
2022-08-05T21:06:36.737Z,19.14
2022-08-05T21:09:05.576Z,19.16
2022-08-05T21:12:09.558Z,19.00
2022-08-05T21:14:20.084Z,19.07
2022-08-05T21:16:47.827Z,19.05
2022-08-05T21:19:16.580Z,19.07
2022-08-05T21:21:50.764Z,18.99
2022-08-05T21:24:19.577Z,19.02
2022-08-05T21:26:57.928Z,19.01
2022-08-05T21:29:32.078Z,18.94
2022-08-05T21:31:59.429Z,19.04
2022-08-05T21:34:26.042Z,18.98
2022-08-05T21:36:54.750Z,19.02
2022-08-05T21:39:26.942Z,19.05
2022-08-05T21:42:01.060Z,19.01
2022-08-05T21:44:28.304Z,19.02
2022-08-05T21:46:55.740Z,18.96
2022-08-05T21:49:59.522Z,18.89
2022-08-05T21:52:22.374Z,18.90
2022-08-05T21:54:55.009Z,18.85
2022-08-05T21:57:31.423Z,18.82
2022-08-05T22:00:07.104Z,18.79
2022-08-05T22:02:38.107Z,18.75
2022-08-05T22:05:05.391Z,18.68
2022-08-05T22:07:40.186Z,18.68
2022-08-05T22:10:26.556Z,18.63
2022-08-05T22:12:53.396Z,18.61
2022-08-05T22:16:01.912Z,18.58
2022-08-05T22:18:07.019Z,18.51
2022-08-05T22:20:35.624Z,18.55
2022-08-05T22:23:24.120Z,18.60
2022-08-05T22:26:11.811Z,18.65
2022-08-05T22:28:41.484Z,18.53
2022-08-05T22:31:07.952Z,18.55
2022-08-05T22:33:57.945Z,18.51
2022-08-05T22:36:24.628Z,18.45
2022-08-05T22:38:54.642Z,18.42
2022-08-05T22:42:04.932Z,18.41
2022-08-05T22:44:08.796Z,18.34
2022-08-05T22:46:40.214Z,18.39
2022-08-05T22:49:12.413Z,18.43
2022-08-05T22:52:05.086Z,18.43
2022-08-05T22:54:35.562Z,18.37
2022-08-05T22:57:03.571Z,18.33
2022-08-05T22:59:43.918Z,18.40
2022-08-05T23:02:29.024Z,18.31
2022-08-05T23:04:58.232Z,18.28
2022-08-05T23:07:28.999Z,18.26
2022-08-05T23:10:01.981Z,18.20
2022-08-05T23:12:32.700Z,18.27
2022-08-05T23:15:03.318Z,18.25
2022-08-05T23:17:32.749Z,18.15
2022-08-05T23:20:16.581Z,18.08
2022-08-05T23:22:47.624Z,18.00
2022-08-05T23:25:52.394Z,17.92
2022-08-05T23:28:07.995Z,17.91
2022-08-05T23:30:40.473Z,17.84
2022-08-05T23:33:15.932Z,17.89
2022-08-05T23:35:43.186Z,17.88
2022-08-05T23:38:12.140Z,17.81
2022-08-05T23:40:38.803Z,17.74
2022-08-05T23:43:24.267Z,17.75
2022-08-05T23:45:52.451Z,17.66
2022-08-05T23:48:19.737Z,17.70
2022-08-05T23:50:46.398Z,17.60
2022-08-05T23:53:22.362Z,17.60
2022-08-05T23:55:49.710Z,17.36
2022-08-05T23:58:31.419Z,17.32
